sensor_id;sensor_type;location;lat;lon;timestamp;P1;durP1;ratioP1;P2;durP2;ratioP2
68386;SDS011;55338;43.062;25.624;2022-07-15T00:01:38;8.63;;;3.22;;
68386;SDS011;55338;43.062;25.624;2022-07-15T00:04:05;7.00;;;3.37;;
68386;SDS011;55338;43.062;25.624;2022-07-15T00:06:31;8.95;;;3.38;;
68386;SDS011;55338;43.062;25.624;2022-07-15T00:08:57;8.47;;;2.70;;
68386;SDS011;55338;43.062;25.624;2022-07-15T00:11:22;8.25;;;3.28;;
68386;SDS011;55338;43.062;25.624;2022-07-15T00:13:48;8.40;;;3.20;;
68386;SDS011;55338;43.062;25.624;2022-07-15T00:16:14;6.90;;;3.33;;
68386;SDS011;55338;43.062;25.624;2022-07-15T00:18:40;7.10;;;3.37;;
68386;SDS011;55338;43.062;25.624;2022-07-15T00:21:06;10.05;;;3.65;;
68386;SDS011;55338;43.062;25.624;2022-07-15T00:23:32;9.98;;;4.22;;
68386;SDS011;55338;43.062;25.624;2022-07-15T00:25:58;7.90;;;3.58;;
68386;SDS011;55338;43.062;25.624;2022-07-15T00:28:24;11.80;;;3.93;;
68386;SDS011;55338;43.062;25.624;2022-07-15T00:30:50;7.97;;;4.35;;
68386;SDS011;55338;43.062;25.624;2022-07-15T00:33:16;7.40;;;3.37;;
68386;SDS011;55338;43.062;25.624;2022-07-15T00:35:41;9.57;;;3.30;;
68386;SDS011;55338;43.062;25.624;2022-07-15T00:38:08;6.85;;;3.58;;
68386;SDS011;55338;43.062;25.624;2022-07-15T00:40:41;9.32;;;4.32;;
68386;SDS011;55338;43.062;25.624;2022-07-15T00:43:08;9.13;;;3.83;;
68386;SDS011;55338;43.062;25.624;2022-07-15T00:45:34;12.73;;;4.30;;
68386;SDS011;55338;43.062;25.624;2022-07-15T00:48:00;9.02;;;3.95;;
68386;SDS011;55338;43.062;25.624;2022-07-15T00:50:27;8.50;;;3.97;;
68386;SDS011;55338;43.062;25.624;2022-07-15T00:53:00;11.20;;;3.90;;
68386;SDS011;55338;43.062;25.624;2022-07-15T00:55:36;7.57;;;3.95;;
68386;SDS011;55338;43.062;25.624;2022-07-15T00:58:06;7.50;;;3.80;;
68386;SDS011;55338;43.062;25.624;2022-07-15T01:00:35;7.00;;;3.70;;
68386;SDS011;55338;43.062;25.624;2022-07-15T01:03:01;9.23;;;3.73;;
68386;SDS011;55338;43.062;25.624;2022-07-15T01:05:27;9.05;;;3.88;;
68386;SDS011;55338;43.062;25.624;2022-07-15T01:07:54;10.40;;;3.92;;
68386;SDS011;55338;43.062;25.624;2022-07-15T01:10:20;7.90;;;4.50;;
68386;SDS011;55338;43.062;25.624;2022-07-15T01:12:49;9.67;;;4.30;;
68386;SDS011;55338;43.062;25.624;2022-07-15T01:15:16;10.82;;;4.15;;
68386;SDS011;55338;43.062;25.624;2022-07-15T01:17:43;7.93;;;4.10;;
68386;SDS011;55338;43.062;25.624;2022-07-15T01:20:10;8.10;;;4.50;;
68386;SDS011;55338;43.062;25.624;2022-07-15T01:22:37;7.45;;;4.78;;
68386;SDS011;55338;43.062;25.624;2022-07-15T01:25:03;8.17;;;4.50;;
68386;SDS011;55338;43.062;25.624;2022-07-15T01:27:29;11.65;;;5.13;;
68386;SDS011;55338;43.062;25.624;2022-07-15T01:29:55;14.38;;;5.45;;
68386;SDS011;55338;43.062;25.624;2022-07-15T01:32:21;18.07;;;6.10;;
68386;SDS011;55338;43.062;25.624;2022-07-15T01:34:47;12.00;;;5.95;;
68386;SDS011;55338;43.062;25.624;2022-07-15T01:37:14;10.80;;;5.82;;
68386;SDS011;55338;43.062;25.624;2022-07-15T01:39:40;12.43;;;6.10;;
68386;SDS011;55338;43.062;25.624;2022-07-15T01:42:07;11.55;;;5.45;;
68386;SDS011;55338;43.062;25.624;2022-07-15T01:44:33;13.80;;;5.97;;
68386;SDS011;55338;43.062;25.624;2022-07-15T01:46:58;9.90;;;5.10;;
68386;SDS011;55338;43.062;25.624;2022-07-15T01:49:24;12.23;;;5.43;;
68386;SDS011;55338;43.062;25.624;2022-07-15T01:52:00;12.88;;;5.78;;
68386;SDS011;55338;43.062;25.624;2022-07-15T01:54:28;11.45;;;4.78;;
68386;SDS011;55338;43.062;25.624;2022-07-15T01:56:55;12.40;;;5.23;;
68386;SDS011;55338;43.062;25.624;2022-07-15T01:59:21;19.90;;;5.55;;
68386;SDS011;55338;43.062;25.624;2022-07-15T02:01:49;10.93;;;5.38;;
68386;SDS011;55338;43.062;25.624;2022-07-15T02:04:19;12.85;;;5.03;;
68386;SDS011;55338;43.062;25.624;2022-07-15T02:06:46;13.87;;;5.30;;
68386;SDS011;55338;43.062;25.624;2022-07-15T02:09:12;16.50;;;5.13;;
68386;SDS011;55338;43.062;25.624;2022-07-15T02:11:38;14.45;;;4.55;;
68386;SDS011;55338;43.062;25.624;2022-07-15T02:14:05;14.45;;;4.43;;
68386;SDS011;55338;43.062;25.624;2022-07-15T02:16:32;14.53;;;4.90;;
68386;SDS011;55338;43.062;25.624;2022-07-15T02:18:58;12.05;;;4.75;;
68386;SDS011;55338;43.062;25.624;2022-07-15T02:21:25;16.42;;;5.13;;
68386;SDS011;55338;43.062;25.624;2022-07-15T02:23:54;11.68;;;5.55;;
68386;SDS011;55338;43.062;25.624;2022-07-15T02:26:22;17.80;;;5.53;;
68386;SDS011;55338;43.062;25.624;2022-07-15T02:28:48;12.00;;;4.83;;
68386;SDS011;55338;43.062;25.624;2022-07-15T02:31:14;16.77;;;4.65;;
68386;SDS011;55338;43.062;25.624;2022-07-15T02:33:40;19.38;;;5.72;;
68386;SDS011;55338;43.062;25.624;2022-07-15T02:36:07;13.63;;;5.63;;
68386;SDS011;55338;43.062;25.624;2022-07-15T02:38:33;11.10;;;4.72;;
68386;SDS011;55338;43.062;25.624;2022-07-15T02:40:59;14.73;;;5.45;;
68386;SDS011;55338;43.062;25.624;2022-07-15T02:43:24;13.53;;;5.80;;
68386;SDS011;55338;43.062;25.624;2022-07-15T02:45:50;12.40;;;5.18;;
68386;SDS011;55338;43.062;25.624;2022-07-15T02:48:16;11.10;;;4.88;;
68386;SDS011;55338;43.062;25.624;2022-07-15T02:50:42;14.50;;;5.07;;
68386;SDS011;55338;43.062;25.624;2022-07-15T02:53:08;11.55;;;4.47;;
68386;SDS011;55338;43.062;25.624;2022-07-15T02:55:34;10.23;;;4.90;;
68386;SDS011;55338;43.062;25.624;2022-07-15T02:58:00;7.47;;;4.03;;
68386;SDS011;55338;43.062;25.624;2022-07-15T03:00:27;7.82;;;4.18;;
68386;SDS011;55338;43.062;25.624;2022-07-15T03:02:53;14.18;;;5.20;;
68386;SDS011;55338;43.062;25.624;2022-07-15T03:05:19;9.80;;;4.70;;
68386;SDS011;55338;43.062;25.624;2022-07-15T03:07:45;12.73;;;4.70;;
68386;SDS011;55338;43.062;25.624;2022-07-15T03:10:11;14.90;;;3.80;;
68386;SDS011;55338;43.062;25.624;2022-07-15T03:12:38;12.80;;;4.70;;
68386;SDS011;55338;43.062;25.624;2022-07-15T03:15:04;13.55;;;5.30;;
68386;SDS011;55338;43.062;25.624;2022-07-15T03:17:31;12.37;;;4.63;;
68386;SDS011;55338;43.062;25.624;2022-07-15T03:19:56;13.38;;;5.85;;
68386;SDS011;55338;43.062;25.624;2022-07-15T03:22:23;21.00;;;5.17;;
68386;SDS011;55338;43.062;25.624;2022-07-15T03:24:49;14.30;;;4.38;;
68386;SDS011;55338;43.062;25.624;2022-07-15T03:27:16;11.13;;;4.15;;
68386;SDS011;55338;43.062;25.624;2022-07-15T03:29:42;14.63;;;4.72;;
68386;SDS011;55338;43.062;25.624;2022-07-15T03:32:08;12.95;;;4.63;;
68386;SDS011;55338;43.062;25.624;2022-07-15T03:34:35;10.13;;;4.83;;
68386;SDS011;55338;43.062;25.624;2022-07-15T03:37:01;10.38;;;5.05;;
68386;SDS011;55338;43.062;25.624;2022-07-15T03:39:27;10.80;;;5.13;;
68386;SDS011;55338;43.062;25.624;2022-07-15T03:41:53;22.45;;;6.00;;
68386;SDS011;55338;43.062;25.624;2022-07-15T03:44:19;14.50;;;6.03;;
68386;SDS011;55338;43.062;25.624;2022-07-15T03:46:45;14.07;;;5.38;;
68386;SDS011;55338;43.062;25.624;2022-07-15T03:49:11;21.48;;;5.82;;
68386;SDS011;55338;43.062;25.624;2022-07-15T03:51:38;24.70;;;5.60;;
68386;SDS011;55338;43.062;25.624;2022-07-15T03:54:04;14.68;;;5.20;;
68386;SDS011;55338;43.062;25.624;2022-07-15T03:56:30;17.10;;;6.07;;
68386;SDS011;55338;43.062;25.624;2022-07-15T03:58:57;15.32;;;5.10;;
68386;SDS011;55338;43.062;25.624;2022-07-15T04:01:22;15.27;;;4.93;;
68386;SDS011;55338;43.062;25.624;2022-07-15T04:03:48;14.73;;;6.47;;
68386;SDS011;55338;43.062;25.624;2022-07-15T04:06:15;20.45;;;5.97;;
68386;SDS011;55338;43.062;25.624;2022-07-15T04:08:42;12.63;;;5.63;;
68386;SDS011;55338;43.062;25.624;2022-07-15T04:11:09;25.48;;;8.18;;
68386;SDS011;55338;43.062;25.624;2022-07-15T04:13:36;27.42;;;8.77;;
68386;SDS011;55338;43.062;25.624;2022-07-15T04:16:02;28.05;;;10.48;;
68386;SDS011;55338;43.062;25.624;2022-07-15T04:18:29;45.13;;;17.65;;
68386;SDS011;55338;43.062;25.624;2022-07-15T04:20:54;38.60;;;17.43;;
68386;SDS011;55338;43.062;25.624;2022-07-15T04:23:20;29.05;;;14.73;;
68386;SDS011;55338;43.062;25.624;2022-07-15T04:25:46;38.33;;;16.07;;
68386;SDS011;55338;43.062;25.624;2022-07-15T04:28:13;41.22;;;15.48;;
68386;SDS011;55338;43.062;25.624;2022-07-15T04:30:39;42.50;;;19.45;;
68386;SDS011;55338;43.062;25.624;2022-07-15T04:33:05;38.43;;;18.90;;
68386;SDS011;55338;43.062;25.624;2022-07-15T04:35:31;39.85;;;16.52;;
68386;SDS011;55338;43.062;25.624;2022-07-15T04:37:56;33.93;;;15.67;;
68386;SDS011;55338;43.062;25.624;2022-07-15T04:40:22;25.48;;;13.90;;
68386;SDS011;55338;43.062;25.624;2022-07-15T04:42:48;28.77;;;12.80;;
68386;SDS011;55338;43.062;25.624;2022-07-15T04:45:14;26.97;;;12.60;;
68386;SDS011;55338;43.062;25.624;2022-07-15T04:47:40;20.98;;;12.00;;
68386;SDS011;55338;43.062;25.624;2022-07-15T04:50:06;24.25;;;13.90;;
68386;SDS011;55338;43.062;25.624;2022-07-15T04:52:50;23.02;;;13.32;;
68386;SDS011;55338;43.062;25.624;2022-07-15T04:55:16;26.07;;;13.47;;
68386;SDS011;55338;43.062;25.624;2022-07-15T04:57:42;25.40;;;14.45;;
68386;SDS011;55338;43.062;25.624;2022-07-15T05:00:08;29.57;;;16.27;;
68386;SDS011;55338;43.062;25.624;2022-07-15T05:02:34;29.65;;;16.20;;
68386;SDS011;55338;43.062;25.624;2022-07-15T05:05:00;36.65;;;19.38;;
68386;SDS011;55338;43.062;25.624;2022-07-15T05:07:26;30.70;;;15.80;;
68386;SDS011;55338;43.062;25.624;2022-07-15T05:09:52;34.55;;;17.30;;
68386;SDS011;55338;43.062;25.624;2022-07-15T05:12:17;35.40;;;20.20;;
68386;SDS011;55338;43.062;25.624;2022-07-15T05:14:43;32.33;;;19.40;;
68386;SDS011;55338;43.062;25.624;2022-07-15T05:17:09;28.60;;;17.60;;
68386;SDS011;55338;43.062;25.624;2022-07-15T05:19:36;31.15;;;18.27;;
68386;SDS011;55338;43.062;25.624;2022-07-15T05:22:01;29.00;;;17.20;;
68386;SDS011;55338;43.062;25.624;2022-07-15T05:24:28;32.53;;;20.05;;
68386;SDS011;55338;43.062;25.624;2022-07-15T05:26:54;34.42;;;20.80;;
68386;SDS011;55338;43.062;25.624;2022-07-15T05:29:20;34.03;;;22.88;;
68386;SDS011;55338;43.062;25.624;2022-07-15T05:31:49;45.47;;;21.37;;
68386;SDS011;55338;43.062;25.624;2022-07-15T05:34:15;37.72;;;22.20;;
68386;SDS011;55338;43.062;25.624;2022-07-15T05:36:41;45.80;;;26.83;;
68386;SDS011;55338;43.062;25.624;2022-07-15T05:39:07;49.22;;;26.92;;
68386;SDS011;55338;43.062;25.624;2022-07-15T05:41:33;47.53;;;25.43;;
68386;SDS011;55338;43.062;25.624;2022-07-15T05:43:59;38.63;;;23.35;;
68386;SDS011;55338;43.062;25.624;2022-07-15T05:46:26;42.08;;;22.10;;
68386;SDS011;55338;43.062;25.624;2022-07-15T05:48:52;35.35;;;18.77;;
68386;SDS011;55338;43.062;25.624;2022-07-15T05:51:18;30.30;;;16.57;;
68386;SDS011;55338;43.062;25.624;2022-07-15T05:53:44;32.80;;;17.48;;
68386;SDS011;55338;43.062;25.624;2022-07-15T05:56:10;29.02;;;17.33;;
68386;SDS011;55338;43.062;25.624;2022-07-15T05:58:36;30.92;;;16.20;;
68386;SDS011;55338;43.062;25.624;2022-07-15T06:01:02;26.90;;;15.80;;
68386;SDS011;55338;43.062;25.624;2022-07-15T06:03:29;20.33;;;10.88;;
68386;SDS011;55338;43.062;25.624;2022-07-15T06:05:55;14.35;;;9.43;;
68386;SDS011;55338;43.062;25.624;2022-07-15T06:08:21;18.90;;;9.45;;
68386;SDS011;55338;43.062;25.624;2022-07-15T06:10:46;17.80;;;9.23;;
68386;SDS011;55338;43.062;25.624;2022-07-15T06:13:13;13.57;;;8.50;;
68386;SDS011;55338;43.062;25.624;2022-07-15T06:15:39;11.23;;;7.75;;
68386;SDS011;55338;43.062;25.624;2022-07-15T06:18:06;13.25;;;7.40;;
68386;SDS011;55338;43.062;25.624;2022-07-15T06:20:32;14.53;;;6.70;;
68386;SDS011;55338;43.062;25.624;2022-07-15T06:22:58;11.88;;;6.85;;
68386;SDS011;55338;43.062;25.624;2022-07-15T06:25:24;9.32;;;6.55;;
68386;SDS011;55338;43.062;25.624;2022-07-15T06:27:50;10.33;;;5.73;;
68386;SDS011;55338;43.062;25.624;2022-07-15T06:30:15;8.30;;;4.33;;
68386;SDS011;55338;43.062;25.624;2022-07-15T06:32:41;8.77;;;4.55;;
68386;SDS011;55338;43.062;25.624;2022-07-15T06:35:07;9.63;;;3.90;;
68386;SDS011;55338;43.062;25.624;2022-07-15T06:37:33;9.18;;;5.35;;
68386;SDS011;55338;43.062;25.624;2022-07-15T06:39:59;7.35;;;4.88;;
68386;SDS011;55338;43.062;25.624;2022-07-15T06:42:26;7.35;;;4.28;;
68386;SDS011;55338;43.062;25.624;2022-07-15T06:44:51;6.73;;;4.87;;
68386;SDS011;55338;43.062;25.624;2022-07-15T06:47:17;7.28;;;3.90;;
68386;SDS011;55338;43.062;25.624;2022-07-15T06:49:43;6.63;;;4.50;;
68386;SDS011;55338;43.062;25.624;2022-07-15T06:52:09;7.13;;;4.78;;
68386;SDS011;55338;43.062;25.624;2022-07-15T06:54:35;9.15;;;4.60;;
68386;SDS011;55338;43.062;25.624;2022-07-15T06:57:00;5.67;;;4.27;;
68386;SDS011;55338;43.062;25.624;2022-07-15T06:59:27;5.85;;;3.15;;
68386;SDS011;55338;43.062;25.624;2022-07-15T07:01:53;6.40;;;3.35;;
68386;SDS011;55338;43.062;25.624;2022-07-15T07:04:19;13.05;;;5.32;;
68386;SDS011;55338;43.062;25.624;2022-07-15T07:06:45;10.30;;;3.83;;
68386;SDS011;55338;43.062;25.624;2022-07-15T07:09:11;9.55;;;4.43;;
68386;SDS011;55338;43.062;25.624;2022-07-15T07:11:37;11.13;;;3.40;;
68386;SDS011;55338;43.062;25.624;2022-07-15T07:14:04;6.07;;;3.75;;
68386;SDS011;55338;43.062;25.624;2022-07-15T07:16:31;6.60;;;3.40;;
68386;SDS011;55338;43.062;25.624;2022-07-15T07:18:57;7.78;;;3.30;;
68386;SDS011;55338;43.062;25.624;2022-07-15T07:21:23;4.85;;;3.28;;
68386;SDS011;55338;43.062;25.624;2022-07-15T07:23:48;7.97;;;4.30;;
68386;SDS011;55338;43.062;25.624;2022-07-15T07:26:15;7.93;;;3.97;;
68386;SDS011;55338;43.062;25.624;2022-07-15T07:28:41;7.15;;;4.43;;
68386;SDS011;55338;43.062;25.624;2022-07-15T07:31:07;6.77;;;3.80;;
68386;SDS011;55338;43.062;25.624;2022-07-15T07:33:34;7.10;;;4.18;;
68386;SDS011;55338;43.062;25.624;2022-07-15T07:36:00;6.75;;;3.75;;
68386;SDS011;55338;43.062;25.624;2022-07-15T07:38:28;7.38;;;3.17;;
68386;SDS011;55338;43.062;25.624;2022-07-15T07:40:54;12.67;;;5.33;;
68386;SDS011;55338;43.062;25.624;2022-07-15T07:43:20;5.75;;;3.42;;
68386;SDS011;55338;43.062;25.624;2022-07-15T07:45:46;7.22;;;3.00;;
68386;SDS011;55338;43.062;25.624;2022-07-15T07:48:12;6.55;;;2.97;;
68386;SDS011;55338;43.062;25.624;2022-07-15T07:50:39;5.23;;;2.13;;
68386;SDS011;55338;43.062;25.624;2022-07-15T07:53:05;4.53;;;2.53;;
68386;SDS011;55338;43.062;25.624;2022-07-15T07:55:31;4.65;;;2.30;;
68386;SDS011;55338;43.062;25.624;2022-07-15T07:57:57;9.57;;;2.40;;
68386;SDS011;55338;43.062;25.624;2022-07-15T08:00:24;6.47;;;3.20;;
68386;SDS011;55338;43.062;25.624;2022-07-15T08:02:55;7.85;;;3.42;;
68386;SDS011;55338;43.062;25.624;2022-07-15T08:05:22;7.60;;;3.45;;
68386;SDS011;55338;43.062;25.624;2022-07-15T08:07:48;9.77;;;3.38;;
68386;SDS011;55338;43.062;25.624;2022-07-15T08:10:14;4.05;;;2.97;;
68386;SDS011;55338;43.062;25.624;2022-07-15T08:12:41;6.07;;;3.00;;
68386;SDS011;55338;43.062;25.624;2022-07-15T08:15:08;4.38;;;2.75;;
68386;SDS011;55338;43.062;25.624;2022-07-15T08:17:39;5.68;;;3.30;;
68386;SDS011;55338;43.062;25.624;2022-07-15T08:20:06;7.13;;;2.50;;
68386;SDS011;55338;43.062;25.624;2022-07-15T08:22:34;5.07;;;2.15;;
68386;SDS011;55338;43.062;25.624;2022-07-15T08:25:01;3.75;;;2.30;;
68386;SDS011;55338;43.062;25.624;2022-07-15T08:27:27;5.07;;;2.25;;
68386;SDS011;55338;43.062;25.624;2022-07-15T08:29:54;7.60;;;2.20;;
68386;SDS011;55338;43.062;25.624;2022-07-15T08:32:20;3.83;;;1.80;;
68386;SDS011;55338;43.062;25.624;2022-07-15T08:34:46;4.75;;;2.90;;
68386;SDS011;55338;43.062;25.624;2022-07-15T08:37:13;7.10;;;2.58;;
68386;SDS011;55338;43.062;25.624;2022-07-15T08:39:39;3.75;;;2.72;;
68386;SDS011;55338;43.062;25.624;2022-07-15T08:42:05;11.30;;;2.97;;
68386;SDS011;55338;43.062;25.624;2022-07-15T08:44:31;7.18;;;2.35;;
68386;SDS011;55338;43.062;25.624;2022-07-15T08:46:59;6.28;;;2.85;;
68386;SDS011;55338;43.062;25.624;2022-07-15T08:49:31;4.45;;;2.58;;
68386;SDS011;55338;43.062;25.624;2022-07-15T08:51:59;5.10;;;2.50;;
68386;SDS011;55338;43.062;25.624;2022-07-15T08:54:26;5.85;;;2.83;;
68386;SDS011;55338;43.062;25.624;2022-07-15T08:56:54;3.05;;;2.33;;
68386;SDS011;55338;43.062;25.624;2022-07-15T08:59:20;4.60;;;3.13;;
68386;SDS011;55338;43.062;25.624;2022-07-15T09:01:46;6.40;;;2.53;;
68386;SDS011;55338;43.062;25.624;2022-07-15T09:04:13;5.77;;;2.27;;
68386;SDS011;55338;43.062;25.624;2022-07-15T09:06:45;5.63;;;2.28;;
68386;SDS011;55338;43.062;25.624;2022-07-15T09:09:22;4.63;;;2.22;;
68386;SDS011;55338;43.062;25.624;2022-07-15T09:11:53;4.15;;;2.38;;
68386;SDS011;55338;43.062;25.624;2022-07-15T09:14:20;4.25;;;2.15;;
68386;SDS011;55338;43.062;25.624;2022-07-15T09:16:46;5.33;;;2.37;;
68386;SDS011;55338;43.062;25.624;2022-07-15T09:19:12;5.18;;;3.08;;
68386;SDS011;55338;43.062;25.624;2022-07-15T09:21:38;6.40;;;2.85;;
68386;SDS011;55338;43.062;25.624;2022-07-15T09:24:15;4.30;;;2.70;;
68386;SDS011;55338;43.062;25.624;2022-07-15T09:26:45;14.02;;;2.92;;
68386;SDS011;55338;43.062;25.624;2022-07-15T09:29:14;6.00;;;2.70;;
68386;SDS011;55338;43.062;25.624;2022-07-15T09:31:59;5.70;;;2.30;;
68386;SDS011;55338;43.062;25.624;2022-07-15T09:35:00;3.85;;;2.20;;
68386;SDS011;55338;43.062;25.624;2022-07-15T09:37:29;3.78;;;2.22;;
68386;SDS011;55338;43.062;25.624;2022-07-15T09:39:55;4.50;;;3.15;;
68386;SDS011;55338;43.062;25.624;2022-07-15T09:42:22;4.10;;;2.20;;
68386;SDS011;55338;43.062;25.624;2022-07-15T09:44:48;4.60;;;2.45;;
68386;SDS011;55338;43.062;25.624;2022-07-15T09:47:19;3.38;;;2.90;;
68386;SDS011;55338;43.062;25.624;2022-07-15T09:49:47;30.80;;;3.45;;
68386;SDS011;55338;43.062;25.624;2022-07-15T09:52:14;5.40;;;2.60;;
68386;SDS011;55338;43.062;25.624;2022-07-15T09:54:41;3.83;;;2.40;;
68386;SDS011;55338;43.062;25.624;2022-07-15T09:57:16;3.85;;;2.00;;
68386;SDS011;55338;43.062;25.624;2022-07-15T09:59:44;4.25;;;2.97;;
68386;SDS011;55338;43.062;25.624;2022-07-15T10:02:11;5.30;;;2.85;;
68386;SDS011;55338;43.062;25.624;2022-07-15T10:04:38;4.45;;;2.05;;
68386;SDS011;55338;43.062;25.624;2022-07-15T10:07:05;4.60;;;2.53;;
68386;SDS011;55338;43.062;25.624;2022-07-15T10:09:31;4.63;;;2.30;;
68386;SDS011;55338;43.062;25.624;2022-07-15T10:25:25;4.40;;;2.53;;
68386;SDS011;55338;43.062;25.624;2022-07-15T10:28:13;3.43;;;2.17;;
68386;SDS011;55338;43.062;25.624;2022-07-15T10:30:42;4.05;;;2.08;;
68386;SDS011;55338;43.062;25.624;2022-07-15T10:51:09;6.83;;;2.63;;
68386;SDS011;55338;43.062;25.624;2022-07-15T10:53:43;3.28;;;2.53;;
68386;SDS011;55338;43.062;25.624;2022-07-15T10:56:34;4.05;;;2.47;;
68386;SDS011;55338;43.062;25.624;2022-07-15T10:59:18;7.15;;;2.67;;
68386;SDS011;55338;43.062;25.624;2022-07-15T11:01:48;5.38;;;2.67;;
68386;SDS011;55338;43.062;25.624;2022-07-15T11:04:35;9.00;;;3.20;;
68386;SDS011;55338;43.062;25.624;2022-07-15T11:12:12;9.65;;;3.10;;
68386;SDS011;55338;43.062;25.624;2022-07-15T11:19:54;5.70;;;3.05;;
68386;SDS011;55338;43.062;25.624;2022-07-15T11:22:22;6.07;;;2.90;;
68386;SDS011;55338;43.062;25.624;2022-07-15T11:24:52;3.70;;;2.70;;
68386;SDS011;55338;43.062;25.624;2022-07-15T11:27:19;4.67;;;2.43;;
68386;SDS011;55338;43.062;25.624;2022-07-15T11:29:51;3.47;;;2.67;;
68386;SDS011;55338;43.062;25.624;2022-07-15T11:32:24;5.60;;;3.38;;
68386;SDS011;55338;43.062;25.624;2022-07-15T11:34:54;4.35;;;2.40;;
68386;SDS011;55338;43.062;25.624;2022-07-15T11:37:25;6.28;;;3.47;;
68386;SDS011;55338;43.062;25.624;2022-07-15T11:40:12;6.23;;;3.30;;
68386;SDS011;55338;43.062;25.624;2022-07-15T11:43:01;6.80;;;2.63;;
68386;SDS011;55338;43.062;25.624;2022-07-15T11:45:47;3.63;;;2.95;;
68386;SDS011;55338;43.062;25.624;2022-07-15T11:48:13;3.83;;;2.20;;
68386;SDS011;55338;43.062;25.624;2022-07-15T11:50:53;4.43;;;2.85;;
68386;SDS011;55338;43.062;25.624;2022-07-15T11:53:20;4.50;;;2.60;;
68386;SDS011;55338;43.062;25.624;2022-07-15T11:55:57;3.72;;;2.42;;
68386;SDS011;55338;43.062;25.624;2022-07-15T11:58:27;3.97;;;2.47;;
68386;SDS011;55338;43.062;25.624;2022-07-15T12:01:01;5.85;;;2.55;;
68386;SDS011;55338;43.062;25.624;2022-07-15T12:03:30;7.38;;;2.80;;
68386;SDS011;55338;43.062;25.624;2022-07-15T12:08:51;5.07;;;2.90;;
68386;SDS011;55338;43.062;25.624;2022-07-15T12:11:21;5.75;;;3.30;;
68386;SDS011;55338;43.062;25.624;2022-07-15T12:16:20;3.25;;;2.95;;
68386;SDS011;55338;43.062;25.624;2022-07-15T12:18:51;11.00;;;3.70;;
68386;SDS011;55338;43.062;25.624;2022-07-15T12:21:22;3.50;;;3.03;;
68386;SDS011;55338;43.062;25.624;2022-07-15T12:26:27;4.43;;;3.08;;
68386;SDS011;55338;43.062;25.624;2022-07-15T12:28:54;6.70;;;3.22;;
68386;SDS011;55338;43.062;25.624;2022-07-15T12:31:28;3.67;;;2.40;;
68386;SDS011;55338;43.062;25.624;2022-07-15T12:33:56;8.45;;;3.45;;
68386;SDS011;55338;43.062;25.624;2022-07-15T12:36:23;6.55;;;2.45;;
68386;SDS011;55338;43.062;25.624;2022-07-15T12:41:30;3.83;;;3.05;;
68386;SDS011;55338;43.062;25.624;2022-07-15T12:43:57;3.67;;;2.33;;
68386;SDS011;55338;43.062;25.624;2022-07-15T12:54:54;5.00;;;2.88;;
68386;SDS011;55338;43.062;25.624;2022-07-15T12:57:34;3.10;;;2.80;;
68386;SDS011;55338;43.062;25.624;2022-07-15T13:00:03;5.63;;;3.58;;
68386;SDS011;55338;43.062;25.624;2022-07-15T13:02:31;5.88;;;2.80;;
68386;SDS011;55338;43.062;25.624;2022-07-15T13:04:57;5.07;;;3.47;;
68386;SDS011;55338;43.062;25.624;2022-07-15T13:07:24;5.18;;;3.30;;
68386;SDS011;55338;43.062;25.624;2022-07-15T13:09:50;5.90;;;3.33;;
68386;SDS011;55338;43.062;25.624;2022-07-15T13:12:17;3.63;;;3.03;;
68386;SDS011;55338;43.062;25.624;2022-07-15T13:14:42;3.30;;;2.95;;
68386;SDS011;55338;43.062;25.624;2022-07-15T13:17:08;3.95;;;3.08;;
68386;SDS011;55338;43.062;25.624;2022-07-15T13:19:34;4.55;;;3.40;;
68386;SDS011;55338;43.062;25.624;2022-07-15T13:22:01;7.13;;;3.00;;
68386;SDS011;55338;43.062;25.624;2022-07-15T13:24:28;13.70;;;3.13;;
68386;SDS011;55338;43.062;25.624;2022-07-15T13:26:54;4.13;;;2.60;;
68386;SDS011;55338;43.062;25.624;2022-07-15T13:29:21;3.35;;;2.85;;
68386;SDS011;55338;43.062;25.624;2022-07-15T13:31:47;7.00;;;2.53;;
68386;SDS011;55338;43.062;25.624;2022-07-15T13:34:14;4.38;;;3.15;;
68386;SDS011;55338;43.062;25.624;2022-07-15T13:36:40;3.75;;;2.88;;
68386;SDS011;55338;43.062;25.624;2022-07-15T13:39:07;3.85;;;2.95;;
68386;SDS011;55338;43.062;25.624;2022-07-15T13:41:33;3.35;;;2.67;;
68386;SDS011;55338;43.062;25.624;2022-07-15T13:44:00;5.07;;;2.90;;
68386;SDS011;55338;43.062;25.624;2022-07-15T13:46:26;7.90;;;3.10;;
68386;SDS011;55338;43.062;25.624;2022-07-15T13:48:52;4.88;;;3.10;;
68386;SDS011;55338;43.062;25.624;2022-07-15T13:51:19;5.22;;;2.70;;
68386;SDS011;55338;43.062;25.624;2022-07-15T13:53:49;3.63;;;2.75;;
68386;SDS011;55338;43.062;25.624;2022-07-15T13:56:19;5.10;;;2.70;;
68386;SDS011;55338;43.062;25.624;2022-07-15T13:58:45;3.85;;;2.47;;
68386;SDS011;55338;43.062;25.624;2022-07-15T14:01:12;3.33;;;2.97;;
68386;SDS011;55338;43.062;25.624;2022-07-15T14:03:38;3.20;;;2.60;;
68386;SDS011;55338;43.062;25.624;2022-07-15T14:06:04;6.40;;;2.95;;
68386;SDS011;55338;43.062;25.624;2022-07-15T14:08:30;9.80;;;3.60;;
68386;SDS011;55338;43.062;25.624;2022-07-15T14:10:56;6.53;;;2.45;;
68386;SDS011;55338;43.062;25.624;2022-07-15T14:13:21;5.57;;;2.30;;
68386;SDS011;55338;43.062;25.624;2022-07-15T14:15:47;3.55;;;2.53;;
68386;SDS011;55338;43.062;25.624;2022-07-15T14:18:13;4.95;;;2.50;;
68386;SDS011;55338;43.062;25.624;2022-07-15T14:20:39;3.20;;;2.50;;
68386;SDS011;55338;43.062;25.624;2022-07-15T14:23:06;4.77;;;2.40;;
68386;SDS011;55338;43.062;25.624;2022-07-15T14:25:33;3.42;;;2.40;;
68386;SDS011;55338;43.062;25.624;2022-07-15T14:27:59;5.70;;;2.53;;
68386;SDS011;55338;43.062;25.624;2022-07-15T14:30:25;11.52;;;2.97;;
68386;SDS011;55338;43.062;25.624;2022-07-15T14:32:51;3.20;;;2.13;;
68386;SDS011;55338;43.062;25.624;2022-07-15T14:35:18;3.63;;;2.72;;
68386;SDS011;55338;43.062;25.624;2022-07-15T14:37:44;6.60;;;3.17;;
68386;SDS011;55338;43.062;25.624;2022-07-15T14:40:10;6.20;;;2.53;;
68386;SDS011;55338;43.062;25.624;2022-07-15T14:42:36;3.07;;;2.30;;
68386;SDS011;55338;43.062;25.624;2022-07-15T14:45:04;5.90;;;3.38;;
68386;SDS011;55338;43.062;25.624;2022-07-15T14:47:30;7.18;;;2.53;;
68386;SDS011;55338;43.062;25.624;2022-07-15T14:49:56;3.20;;;2.50;;
68386;SDS011;55338;43.062;25.624;2022-07-15T14:52:22;5.20;;;2.65;;
68386;SDS011;55338;43.062;25.624;2022-07-15T14:54:48;5.88;;;2.75;;
68386;SDS011;55338;43.062;25.624;2022-07-15T14:57:14;5.65;;;2.78;;
68386;SDS011;55338;43.062;25.624;2022-07-15T14:59:41;3.87;;;2.40;;
68386;SDS011;55338;43.062;25.624;2022-07-15T15:02:08;3.50;;;2.53;;
68386;SDS011;55338;43.062;25.624;2022-07-15T15:04:34;3.45;;;2.67;;
68386;SDS011;55338;43.062;25.624;2022-07-15T15:07:01;4.32;;;2.25;;
68386;SDS011;55338;43.062;25.624;2022-07-15T15:09:27;5.67;;;2.57;;
68386;SDS011;55338;43.062;25.624;2022-07-15T15:11:53;3.80;;;2.53;;
68386;SDS011;55338;43.062;25.624;2022-07-15T15:14:19;4.57;;;2.65;;
68386;SDS011;55338;43.062;25.624;2022-07-15T15:16:45;4.03;;;2.60;;
68386;SDS011;55338;43.062;25.624;2022-07-15T15:19:11;4.00;;;2.50;;
68386;SDS011;55338;43.062;25.624;2022-07-15T15:21:37;4.65;;;2.17;;
68386;SDS011;55338;43.062;25.624;2022-07-15T15:24:03;3.63;;;2.40;;
68386;SDS011;55338;43.062;25.624;2022-07-15T15:26:31;3.40;;;2.63;;
68386;SDS011;55338;43.062;25.624;2022-07-15T15:28:57;3.38;;;2.00;;
68386;SDS011;55338;43.062;25.624;2022-07-15T15:31:24;4.93;;;2.72;;